createdAt,value
2023-03-22T00:01:43.469Z,75.77
2023-03-22T00:04:11.428Z,75.88
2023-03-22T00:06:39.201Z,76.04
2023-03-22T00:09:06.982Z,76.17
2023-03-22T00:11:34.698Z,76.58
2023-03-22T00:14:02.457Z,76.04
2023-03-22T00:16:32.541Z,75.99
2023-03-22T00:19:00.629Z,76.41
2023-03-22T00:21:28.380Z,76.21
2023-03-22T00:23:56.139Z,76.23
2023-03-22T00:26:23.849Z,76.75
2023-03-22T00:28:54.339Z,76.79
2023-03-22T00:31:22.210Z,77.08
2023-03-22T00:33:49.959Z,76.91
2023-03-22T00:36:17.680Z,77.20
2023-03-22T00:38:45.618Z,77.15
2023-03-22T00:41:21.836Z,77.78
2023-03-22T00:43:50.869Z,77.96
2023-03-22T00:46:20.778Z,77.26
2023-03-22T00:48:49.694Z,77.61
2023-03-22T00:51:18.418Z,77.86
2023-03-22T00:53:51.118Z,77.86
2023-03-22T00:56:19.675Z,78.23
2023-03-22T00:58:57.250Z,78.38
2023-03-22T01:01:27.577Z,78.24
2023-03-22T01:03:55.887Z,78.34
2023-03-22T01:06:23.736Z,78.25
2023-03-22T01:08:51.880Z,78.15
2023-03-22T01:11:19.738Z,78.50
2023-03-22T01:13:50.509Z,78.65
2023-03-22T01:16:18.593Z,78.64
2023-03-22T01:18:46.473Z,78.22
2023-03-22T01:21:14.749Z,78.21
2023-03-22T01:23:42.869Z,78.01
2023-03-22T01:26:10.696Z,78.82
2023-03-22T01:28:40.655Z,78.73
2023-03-22T01:31:09.655Z,78.57
2023-03-22T01:33:38.344Z,78.94
2023-03-22T01:36:09.193Z,78.73
2023-03-22T01:38:37.064Z,78.57
2023-03-22T01:41:04.907Z,78.92
2023-03-22T01:43:38.647Z,79.14
2023-03-22T01:46:07.285Z,79.43
2023-03-22T01:48:42.237Z,79.37
2023-03-22T01:51:15.473Z,79.31
2023-03-22T01:54:43.091Z,79.85
2023-03-22T01:57:44.038Z,79.25
2023-03-22T02:00:21.481Z,79.65
2023-03-22T02:03:26.106Z,79.88
2023-03-22T02:05:56.089Z,79.99
2023-03-22T02:08:58.206Z,79.57
2023-03-22T02:11:39.284Z,80.17
2023-03-22T02:14:53.244Z,80.14
2023-03-22T02:18:16.642Z,79.78
2023-03-22T02:21:12.404Z,80.11
2023-03-22T02:23:59.654Z,79.94
2023-03-22T02:26:51.245Z,79.96
2023-03-22T02:29:22.440Z,80.17
2023-03-22T02:31:58.908Z,80.04
2023-03-22T02:34:50.203Z,80.02
2023-03-22T02:37:36.501Z,79.46
2023-03-22T02:40:15.728Z,79.54
2023-03-22T02:43:11.616Z,79.46
2023-03-22T02:45:52.894Z,79.59
2023-03-22T02:48:35.168Z,79.41
2023-03-22T02:51:12.028Z,79.45
2023-03-22T02:54:18.642Z,79.26
2023-03-22T02:57:06.867Z,79.63
2023-03-22T02:59:38.512Z,78.89
2023-03-22T03:02:09.382Z,78.99
2023-03-22T03:04:42.635Z,79.00
2023-03-22T03:07:15.214Z,79.07
2023-03-22T03:09:43.358Z,79.08
2023-03-22T03:12:20.257Z,79.03
2023-03-22T03:14:48.573Z,78.95
2023-03-22T03:17:37.627Z,78.73
2023-03-22T03:20:08.712Z,79.04
2023-03-22T03:22:41.764Z,79.49
2023-03-22T03:25:26.320Z,79.25
2023-03-22T03:28:10.185Z,79.54
2023-03-22T03:31:02.084Z,80.26
2023-03-22T03:33:32.760Z,80.22
2023-03-22T03:36:08.848Z,80.35
2023-03-22T03:38:37.130Z,81.34
2023-03-22T03:41:08.390Z,80.91
2023-03-22T03:43:37.347Z,80.76
2023-03-22T03:46:07.401Z,80.96
2023-03-22T03:48:37.995Z,81.06
2023-03-22T03:51:05.982Z,81.29
2023-03-22T03:53:33.952Z,80.96
2023-03-22T03:56:01.761Z,81.46
2023-03-22T03:58:36.645Z,81.19
2023-03-22T04:01:04.597Z,81.37
2023-03-22T04:03:35.506Z,80.93
2023-03-22T04:06:12.506Z,81.62
2023-03-22T04:08:45.674Z,81.93
2023-03-22T04:11:19.111Z,81.64
2023-03-22T04:13:50.440Z,81.52
2023-03-22T04:16:21.846Z,81.51
2023-03-22T04:18:49.781Z,81.72
2023-03-22T04:21:18.430Z,81.21
2023-03-22T04:23:57.568Z,80.87
2023-03-22T04:26:27.153Z,81.21
2023-03-22T04:29:18.212Z,81.05
2023-03-22T04:31:50.933Z,80.78
2023-03-22T04:34:22.652Z,80.84
2023-03-22T04:36:57.483Z,81.19
2023-03-22T04:39:33.319Z,81.13
2023-03-22T04:42:21.288Z,81.38
2023-03-22T04:44:57.367Z,80.97
2023-03-22T04:47:25.378Z,80.91
2023-03-22T04:49:53.181Z,80.90
2023-03-22T04:52:21.074Z,80.60
2023-03-22T04:54:53.190Z,80.35
2023-03-22T04:57:21.374Z,80.87
2023-03-22T04:59:50.366Z,80.89
2023-03-22T05:02:18.362Z,81.03
2023-03-22T05:04:48.753Z,80.47
2023-03-22T05:07:31.376Z,80.36
2023-03-22T05:10:01.682Z,80.37
2023-03-22T05:12:31.407Z,80.21
2023-03-22T05:15:19.453Z,79.52
2023-03-22T05:17:49.184Z,79.83
2023-03-22T05:20:16.985Z,79.93
2023-03-22T05:22:50.715Z,79.58
2023-03-22T05:25:19.985Z,79.44
2023-03-22T05:27:50.289Z,79.67
2023-03-22T05:30:36.245Z,79.11
2023-03-22T05:33:21.800Z,78.80
2023-03-22T05:35:52.847Z,79.13
2023-03-22T05:38:22.991Z,79.02
2023-03-22T05:40:53.180Z,79.06
2023-03-22T05:43:21.473Z,79.21
2023-03-22T05:45:51.921Z,79.12
2023-03-22T05:48:40.668Z,79.32
2023-03-22T05:51:17.594Z,79.14
2023-03-22T05:53:48.262Z,79.39
2023-03-22T05:56:24.492Z,79.48
2023-03-22T05:59:02.040Z,78.88
2023-03-22T06:01:31.712Z,78.75
2023-03-22T06:04:13.798Z,78.68
2023-03-22T06:07:07.748Z,78.22
2023-03-22T06:09:56.178Z,78.34
2023-03-22T06:12:28.903Z,77.79
2023-03-22T06:15:06.610Z,77.35
2023-03-22T06:17:37.889Z,76.18
2023-03-22T06:20:11.977Z,76.25
2023-03-22T06:22:43.083Z,76.09
2023-03-22T06:25:11.720Z,75.75
2023-03-22T06:27:46.027Z,76.45
2023-03-22T06:30:14.090Z,76.21
2023-03-22T06:33:05.476Z,76.02
2023-03-22T06:35:36.549Z,75.93
2023-03-22T06:38:05.641Z,75.70
2023-03-22T06:40:35.864Z,75.48
2023-03-22T06:43:06.985Z,75.58
2023-03-22T06:45:37.091Z,75.00
2023-03-22T06:48:06.167Z,74.51
2023-03-22T06:51:03.081Z,73.80
2023-03-22T06:53:36.109Z,73.22
2023-03-22T06:56:05.609Z,73.12
2023-03-22T06:58:43.066Z,73.45
2023-03-22T07:01:10.875Z,73.12
2023-03-22T07:03:38.965Z,73.22
2023-03-22T07:06:13.096Z,73.07
2023-03-22T07:08:44.240Z,72.60
2023-03-22T07:11:14.654Z,72.44
2023-03-22T07:13:48.160Z,71.86
2023-03-22T07:16:20.289Z,71.60
2023-03-22T07:18:56.023Z,71.29
2023-03-22T07:21:24.400Z,70.43
2023-03-22T07:23:57.025Z,69.57
2023-03-22T07:26:30.594Z,68.39
2023-03-22T07:28:59.877Z,67.53
2023-03-22T07:31:31.779Z,66.15
2023-03-22T07:34:12.455Z,65.90
2023-03-22T07:37:00.540Z,62.85
2023-03-22T07:39:29.304Z,63.28
2023-03-22T07:41:58.627Z,62.30
2023-03-22T07:44:26.640Z,61.75
2023-03-22T07:47:41.194Z,61.94
2023-03-22T07:50:32.414Z,62.12
2023-03-22T07:53:04.069Z,62.44
2023-03-22T07:55:32.196Z,61.69
2023-03-22T07:57:59.885Z,61.52
2023-03-22T08:00:28.253Z,61.27
2023-03-22T08:03:22.457Z,60.93
2023-03-22T08:06:06.647Z,60.38
2023-03-22T08:08:37.034Z,60.71
2023-03-22T08:11:08.199Z,58.81
2023-03-22T08:13:40.034Z,59.26
2023-03-22T08:16:10.672Z,59.68
2023-03-22T08:18:38.516Z,58.92
2023-03-22T08:21:07.535Z,60.19
2023-03-22T08:23:41.787Z,59.86
2023-03-22T08:26:29.076Z,60.12
2023-03-22T08:29:02.419Z,59.99
2023-03-22T08:31:33.609Z,60.51
2023-03-22T08:34:01.497Z,59.26
2023-03-22T08:36:29.307Z,58.71
2023-03-22T08:39:01.631Z,58.28
2023-03-22T08:41:44.688Z,57.55
2023-03-22T08:44:12.515Z,57.87
2023-03-22T08:46:41.327Z,56.66
2023-03-22T08:49:10.544Z,56.05
2023-03-22T08:51:47.806Z,56.95
2023-03-22T08:54:38.801Z,57.51
2023-03-22T08:57:09.566Z,57.50
2023-03-22T08:59:50.051Z,57.09
2023-03-22T09:02:25.907Z,57.11
2023-03-22T09:04:54.809Z,57.19
2023-03-22T09:07:22.744Z,57.60
2023-03-22T09:10:01.315Z,56.71
2023-03-22T09:12:29.932Z,56.63
2023-03-22T09:14:57.799Z,56.12
2023-03-22T09:17:28.264Z,55.75
2023-03-22T09:20:11.118Z,55.44
2023-03-22T09:22:42.031Z,54.96
2023-03-22T09:25:12.820Z,54.49
2023-03-22T09:27:43.704Z,55.53
2023-03-22T09:30:11.858Z,55.17
2023-03-22T09:32:42.647Z,55.77
2023-03-22T09:35:13.070Z,55.10
2023-03-22T09:37:53.511Z,55.58
2023-03-22T09:40:31.162Z,54.48
2023-03-22T09:43:03.550Z,54.97
2023-03-22T09:45:38.752Z,55.52
2023-03-22T09:48:13.802Z,55.48
2023-03-22T09:50:48.293Z,55.69
2023-03-22T09:53:17.254Z,56.27
2023-03-22T09:56:12.766Z,56.76
2023-03-22T09:58:54.530Z,57.35
2023-03-22T10:01:31.841Z,57.26
2023-03-22T10:04:15.716Z,57.40
2023-03-22T10:06:47.673Z,56.52
2023-03-22T10:09:26.001Z,56.41
2023-03-22T10:12:05.127Z,56.09
2023-03-22T10:15:03.340Z,56.28
2023-03-22T10:17:31.828Z,55.29
2023-03-22T10:20:08.263Z,55.17
2023-03-22T10:22:38.855Z,55.04
2023-03-22T10:25:08.443Z,54.33
2023-03-22T10:27:36.669Z,54.88
2023-03-22T10:30:12.958Z,55.69
2023-03-22T10:32:57.124Z,54.95
2023-03-22T10:35:25.896Z,55.13
2023-03-22T10:37:55.877Z,54.78
2023-03-22T10:40:29.946Z,54.08
2023-03-22T10:43:13.387Z,54.37
2023-03-22T10:45:41.489Z,53.75
2023-03-22T10:48:23.021Z,54.57
2023-03-22T10:50:50.756Z,54.02
2023-03-22T10:53:33.498Z,53.17
2023-03-22T10:56:01.258Z,53.35
2023-03-22T10:58:31.496Z,53.06
2023-03-22T11:01:11.136Z,53.57
2023-03-22T11:03:49.680Z,53.28
2023-03-22T11:06:19.882Z,53.35
2023-03-22T11:08:54.145Z,51.89
2023-03-22T11:11:41.578Z,51.20
2023-03-22T11:14:15.110Z,50.29
2023-03-22T11:17:22.703Z,50.17
2023-03-22T11:19:54.991Z,50.28
2023-03-22T11:22:25.495Z,50.76
2023-03-22T11:24:56.628Z,51.04
2023-03-22T11:27:30.395Z,51.21
2023-03-22T11:30:07.912Z,50.87
2023-03-22T11:32:37.629Z,50.49
2023-03-22T11:35:13.895Z,51.05
2023-03-22T11:37:51.670Z,51.94
2023-03-22T11:40:24.785Z,51.52
2023-03-22T11:42:57.276Z,51.45
2023-03-22T11:45:37.596Z,51.75
2023-03-22T11:48:16.915Z,52.48
2023-03-22T11:50:46.461Z,52.56
2023-03-22T11:53:17.497Z,53.42
2023-03-22T11:55:46.243Z,53.72
2023-03-22T11:58:30.080Z,54.72
2023-03-22T12:01:00.547Z,55.18
2023-03-22T12:03:40.695Z,56.89
2023-03-22T12:06:20.681Z,57.12
2023-03-22T12:08:59.264Z,57.55
2023-03-22T12:11:33.274Z,57.44
2023-03-22T12:14:14.632Z,57.82
2023-03-22T12:16:51.762Z,57.95
2023-03-22T12:19:51.129Z,56.82
2023-03-22T12:22:23.450Z,56.43
2023-03-22T12:24:51.258Z,56.91
2023-03-22T12:27:31.693Z,55.19
2023-03-22T12:30:08.563Z,55.35
2023-03-22T12:32:42.166Z,55.59
2023-03-22T12:35:18.318Z,54.93
2023-03-22T12:37:54.246Z,54.66
2023-03-22T12:40:26.452Z,54.51
2023-03-22T12:43:18.043Z,54.52
2023-03-22T12:45:56.687Z,55.29
2023-03-22T12:48:49.236Z,55.79
2023-03-22T12:51:17.055Z,56.01
2023-03-22T12:53:52.496Z,56.13
2023-03-22T12:56:41.329Z,56.10
2023-03-22T12:59:32.135Z,56.24
2023-03-22T13:02:38.524Z,56.79
2023-03-22T13:05:11.273Z,56.18
2023-03-22T13:07:41.244Z,56.79
2023-03-22T13:10:31.440Z,56.16
2023-03-22T13:13:21.784Z,55.22
2023-03-22T13:16:02.926Z,54.97
2023-03-22T13:18:37.752Z,55.87
2023-03-22T13:21:16.676Z,54.88
2023-03-22T13:24:10.357Z,54.77
2023-03-22T13:26:47.592Z,54.22
2023-03-22T13:29:24.693Z,53.93
2023-03-22T13:31:58.949Z,54.10
2023-03-22T13:34:35.871Z,53.90
2023-03-22T13:37:09.385Z,54.21
2023-03-22T13:39:39.411Z,54.96
2023-03-22T13:42:26.513Z,54.31
2023-03-22T13:44:59.286Z,54.81
2023-03-22T13:47:38.547Z,54.88
2023-03-22T13:50:16.178Z,55.54
2023-03-22T13:53:06.040Z,54.58
2023-03-22T13:55:52.025Z,54.66
2023-03-22T13:58:49.557Z,54.89
2023-03-22T14:01:36.873Z,55.63
2023-03-22T14:04:10.994Z,55.08
2023-03-22T14:06:48.319Z,55.66
2023-03-22T14:09:26.818Z,55.21
2023-03-22T14:12:01.629Z,55.60
2023-03-22T14:14:35.698Z,55.34
2023-03-22T14:17:05.495Z,54.78
2023-03-22T14:19:34.016Z,54.95
